createdAt,value
2022-09-02T00:00:29.129Z,0
2022-09-02T00:01:29.126Z,0
2022-09-02T00:02:30.024Z,0
2022-09-02T00:03:34.348Z,0
2022-09-02T00:04:29.120Z,0
2022-09-02T00:05:29.133Z,0
2022-09-02T00:06:29.134Z,0
2022-09-02T00:07:29.152Z,0
2022-09-02T00:08:32.042Z,0
2022-09-02T00:09:29.145Z,0
2022-09-02T00:10:29.140Z,0
2022-09-02T00:11:30.707Z,0
2022-09-02T00:12:29.164Z,0
2022-09-02T00:13:29.343Z,0
2022-09-02T00:14:32.238Z,0
2022-09-02T00:15:30.273Z,0
2022-09-02T00:16:29.531Z,0
2022-09-02T00:17:29.167Z,0
2022-09-02T00:18:30.591Z,0
2022-09-02T00:19:31.947Z,0
2022-09-02T00:20:29.182Z,0
2022-09-02T00:21:29.164Z,0
2022-09-02T00:22:29.189Z,0
2022-09-02T00:23:32.307Z,0
2022-09-02T00:24:29.178Z,0
2022-09-02T00:25:31.966Z,0
2022-09-02T00:26:29.180Z,0
2022-09-02T00:27:29.215Z,0
2022-09-02T00:28:32.613Z,0
2022-09-02T00:29:29.176Z,0
2022-09-02T00:30:32.232Z,0
2022-09-02T00:31:29.737Z,0
2022-09-02T00:32:29.221Z,0
2022-09-02T00:33:29.460Z,0
2022-09-02T00:34:29.180Z,0
2022-09-02T00:35:29.183Z,0
2022-09-02T00:36:32.079Z,0
2022-09-02T00:37:29.195Z,0
2022-09-02T00:38:29.279Z,0
2022-09-02T00:39:29.242Z,0
2022-09-02T00:40:29.668Z,0
2022-09-02T00:41:32.062Z,0
2022-09-02T00:42:29.214Z,0
2022-09-02T00:43:29.371Z,0
2022-09-02T00:44:29.188Z,0
2022-09-02T00:45:29.402Z,0
2022-09-02T00:46:30.485Z,0
2022-09-02T00:47:32.008Z,0
2022-09-02T00:48:29.205Z,0
2022-09-02T00:49:30.253Z,0
2022-09-02T00:50:30.358Z,0
2022-09-02T00:51:29.251Z,0
2022-09-02T00:52:33.568Z,0
2022-09-02T00:53:30.310Z,0
2022-09-02T00:54:29.201Z,0
2022-09-02T00:55:29.221Z,0
2022-09-02T00:56:29.237Z,0
2022-09-02T00:57:29.252Z,0
2022-09-02T00:58:29.224Z,0
2022-09-02T00:59:29.222Z,0
2022-09-02T01:00:37.073Z,0
2022-09-02T01:01:30.130Z,0
2022-09-02T01:02:30.066Z,0
2022-09-02T01:03:32.301Z,0
2022-09-02T01:04:29.236Z,0
2022-09-02T01:05:29.244Z,0
2022-09-02T01:06:30.685Z,0
2022-09-02T01:07:29.282Z,0
2022-09-02T01:08:29.257Z,0
2022-09-02T01:09:29.245Z,0
2022-09-02T01:10:29.229Z,0
2022-09-02T01:11:29.244Z,0
2022-09-02T01:12:29.266Z,0
2022-09-02T01:13:29.427Z,0
2022-09-02T01:14:33.180Z,0
2022-09-02T01:15:29.250Z,0
2022-09-02T01:16:30.320Z,0
2022-09-02T01:17:29.293Z,0
2022-09-02T01:18:29.261Z,0
2022-09-02T01:19:32.556Z,0
2022-09-02T01:20:33.547Z,0
2022-09-02T01:21:29.257Z,0
2022-09-02T01:22:29.270Z,0
2022-09-02T01:23:37.048Z,0
2022-09-02T01:24:29.270Z,0
2022-09-02T01:25:29.264Z,0
2022-09-02T01:26:29.287Z,0
2022-09-02T01:27:29.130Z,0
2022-09-02T01:28:30.051Z,0
2022-09-02T01:29:29.271Z,0
2022-09-02T01:30:32.296Z,0
2022-09-02T01:31:29.671Z,0
2022-09-02T01:32:29.308Z,0
2022-09-02T01:33:35.222Z,0
2022-09-02T01:34:29.293Z,0
2022-09-02T01:35:32.331Z,0
2022-09-02T01:36:29.286Z,0
2022-09-02T01:37:29.320Z,0
2022-09-02T01:38:29.276Z,0
2022-09-02T01:39:29.290Z,0
2022-09-02T01:40:29.698Z,0
2022-09-02T01:41:32.488Z,0
2022-09-02T01:42:29.319Z,0
2022-09-02T01:43:29.460Z,0
2022-09-02T01:44:29.296Z,0
2022-09-02T01:45:29.311Z,0
2022-09-02T01:46:32.619Z,0
2022-09-02T01:47:29.324Z,0
2022-09-02T01:48:30.980Z,0
2022-09-02T01:49:29.329Z,0
2022-09-02T01:50:29.321Z,0
2022-09-02T01:51:32.328Z,0
2022-09-02T01:52:29.473Z,0
2022-09-02T01:53:29.640Z,0
2022-09-02T01:54:29.320Z,0
2022-09-02T01:55:29.333Z,0
2022-09-02T01:56:29.324Z,0
2022-09-02T01:57:32.474Z,0
2022-09-02T01:58:29.329Z,0
2022-09-02T01:59:29.330Z,0
2022-09-02T02:00:29.389Z,0
2022-09-02T02:01:29.885Z,0
2022-09-02T02:02:32.478Z,0
2022-09-02T02:03:33.896Z,0
2022-09-02T02:04:30.730Z,0
2022-09-02T02:05:29.378Z,0
2022-09-02T02:06:29.332Z,0
2022-09-02T02:07:29.335Z,0
2022-09-02T02:08:32.446Z,0
2022-09-02T02:09:29.343Z,0
2022-09-02T02:10:29.685Z,0
2022-09-02T02:11:29.340Z,0
2022-09-02T02:12:29.347Z,0
2022-09-02T02:13:32.997Z,0
2022-09-02T02:14:29.376Z,0
2022-09-02T02:16:29.804Z,0
2022-09-02T02:17:29.348Z,0
2022-09-02T02:18:29.822Z,0
2022-09-02T02:19:33.947Z,0
2022-09-02T02:20:29.398Z,0
2022-09-02T02:21:29.775Z,0
2022-09-02T02:22:29.363Z,0
2022-09-02T02:23:29.683Z,0
2022-09-02T02:24:32.023Z,0
2022-09-02T02:25:29.369Z,0
2022-09-02T02:26:29.529Z,0
2022-09-02T02:27:29.379Z,0
2022-09-02T02:28:29.389Z,0
2022-09-02T02:29:29.380Z,0
2022-09-02T02:30:32.517Z,0
2022-09-02T02:31:29.728Z,0
2022-09-02T02:32:29.395Z,0
2022-09-02T02:33:40.953Z,0
2022-09-02T02:34:29.379Z,0
2022-09-02T02:35:32.174Z,0
2022-09-02T02:36:29.393Z,0
2022-09-02T02:37:34.405Z,0
2022-09-02T02:38:32.290Z,0
2022-09-02T02:39:29.442Z,0
2022-09-02T02:40:29.863Z,0
2022-09-02T02:41:32.104Z,0
2022-09-02T02:42:29.402Z,0
2022-09-02T02:43:29.578Z,0
2022-09-02T02:44:29.458Z,0
2022-09-02T02:45:29.401Z,0
2022-09-02T02:46:32.574Z,0
2022-09-02T02:47:29.437Z,0
2022-09-02T02:48:29.406Z,0
2022-09-02T02:49:29.445Z,0
2022-09-02T02:51:29.440Z,0
2022-09-02T02:52:32.451Z,0
2022-09-02T02:53:29.594Z,0
2022-09-02T02:54:39.760Z,0
2022-09-02T02:55:29.456Z,0
2022-09-02T02:56:29.440Z,0
2022-09-02T02:57:32.462Z,0
2022-09-02T02:58:29.434Z,0
2022-09-02T02:59:29.460Z,0
2022-09-02T03:01:29.784Z,0
2022-09-02T03:02:30.439Z,0
2022-09-02T03:03:32.663Z,0
2022-09-02T03:04:29.453Z,0
2022-09-02T03:05:29.441Z,0
2022-09-02T03:06:35.428Z,0
2022-09-02T03:07:29.440Z,0
2022-09-02T03:08:32.207Z,0
2022-09-02T03:09:29.523Z,0
2022-09-02T03:10:29.455Z,0
2022-09-02T03:11:29.501Z,0
2022-09-02T03:12:29.459Z,0
2022-09-02T03:13:34.227Z,0
2022-09-02T03:14:32.400Z,0
2022-09-02T03:15:29.473Z,0
2022-09-02T03:16:29.881Z,0
2022-09-02T03:17:29.505Z,0
2022-09-02T03:18:29.451Z,0
2022-09-02T03:19:32.251Z,0
2022-09-02T03:20:30.161Z,0
2022-09-02T03:21:29.469Z,0
2022-09-02T03:22:29.469Z,0
2022-09-02T03:23:29.770Z,0
2022-09-02T03:24:29.485Z,0
2022-09-02T03:25:38.074Z,0
2022-09-02T03:26:29.484Z,0
2022-09-02T03:27:31.256Z,0
2022-09-02T03:28:29.474Z,0
2022-09-02T03:29:29.492Z,0
2022-09-02T03:30:32.358Z,0
2022-09-02T03:31:29.978Z,0
2022-09-02T03:32:35.197Z,0
2022-09-02T03:33:29.636Z,0
2022-09-02T03:34:31.426Z,0
2022-09-02T03:35:29.493Z,0
2022-09-02T03:36:29.495Z,0
2022-09-02T03:37:29.505Z,0
2022-09-02T03:38:29.518Z,0
2022-09-02T03:39:29.520Z,0
2022-09-02T03:40:29.912Z,0
2022-09-02T03:41:29.525Z,0
2022-09-02T03:42:31.244Z,0
2022-09-02T03:43:29.684Z,0
2022-09-02T03:44:29.524Z,0
2022-09-02T03:45:29.498Z,0
2022-09-02T03:46:33.119Z,0
2022-09-02T03:47:31.349Z,0
2022-09-02T03:48:29.362Z,0
2022-09-02T03:49:29.538Z,0
2022-09-02T03:50:29.517Z,0
2022-09-02T03:51:29.520Z,0
2022-09-02T03:52:29.517Z,0
2022-09-02T03:53:30.203Z,0
2022-09-02T03:54:31.349Z,0
2022-09-02T03:55:29.680Z,0
2022-09-02T03:56:29.521Z,0
2022-09-02T03:57:32.358Z,0
2022-09-02T03:58:31.663Z,0
2022-09-02T03:59:29.574Z,0
2022-09-02T04:00:29.529Z,0
2022-09-02T04:01:37.375Z,0
2022-09-02T04:02:31.191Z,0
2022-09-02T04:03:30.634Z,0
2022-09-02T04:04:31.986Z,0
2022-09-02T04:05:29.546Z,0
2022-09-02T04:06:35.228Z,0
2022-09-02T04:07:29.595Z,0
2022-09-02T04:08:32.225Z,0
2022-09-02T04:09:29.605Z,0
2022-09-02T04:10:29.596Z,0
2022-09-02T04:11:29.552Z,0
2022-09-02T04:12:36.921Z,0
2022-09-02T04:13:32.652Z,0
2022-09-02T04:14:29.577Z,0
2022-09-02T04:15:29.596Z,0
2022-09-02T04:16:30.038Z,0
2022-09-02T04:17:29.577Z,0
2022-09-02T04:18:35.633Z,0
2022-09-02T04:19:29.618Z,0
2022-09-02T04:20:29.623Z,0
2022-09-02T04:21:29.630Z,0
2022-09-02T04:22:29.607Z,0
2022-09-02T04:23:29.801Z,0
2022-09-02T04:24:32.612Z,0
2022-09-02T04:25:39.772Z,0
2022-09-02T04:26:29.584Z,0
2022-09-02T04:27:29.603Z,0
2022-09-02T04:28:29.610Z,0
2022-09-02T04:29:31.560Z,0
2022-09-02T04:30:29.592Z,0
2022-09-02T04:31:31.383Z,0
2022-09-02T04:32:29.601Z,0
2022-09-02T04:33:29.732Z,0
2022-09-02T04:34:29.650Z,0
2022-09-02T04:35:32.600Z,0
2022-09-02T04:36:35.159Z,0
2022-09-02T04:37:29.600Z,0
2022-09-02T04:38:29.606Z,0
2022-09-02T04:39:31.448Z,0
2022-09-02T04:40:33.184Z,0
2022-09-02T04:41:29.601Z,0
2022-09-02T04:42:29.599Z,0
2022-09-02T04:43:29.818Z,0
2022-09-02T04:44:29.639Z,0
2022-09-02T04:45:34.617Z,0
2022-09-02T04:46:43.137Z,0
2022-09-02T04:47:29.598Z,0
2022-09-02T04:48:29.725Z,0
2022-09-02T04:49:29.631Z,0
2022-09-02T04:50:29.604Z,0
2022-09-02T04:51:32.784Z,0
2022-09-02T04:52:30.178Z,0
2022-09-02T04:53:29.731Z,0
2022-09-02T04:54:29.670Z,0
2022-09-02T04:55:29.642Z,0
2022-09-02T04:56:29.624Z,0
2022-09-02T04:57:32.650Z,0
2022-09-02T04:58:29.631Z,0
2022-09-02T04:59:30.864Z,0
2022-09-02T05:00:29.653Z,0
2022-09-02T05:01:30.058Z,0
2022-09-02T05:02:33.262Z,0
2022-09-02T05:03:29.892Z,0
2022-09-02T05:04:29.656Z,0
2022-09-02T05:05:29.652Z,0
2022-09-02T05:06:29.649Z,0
2022-09-02T05:07:33.120Z,0
2022-09-02T05:08:32.654Z,5
2022-09-02T05:09:29.676Z,0
2022-09-02T05:10:29.660Z,5
2022-09-02T05:11:29.664Z,5
2022-09-02T05:12:29.649Z,5
2022-09-02T05:13:32.448Z,5
2022-09-02T05:14:31.729Z,5
2022-09-02T05:15:29.691Z,5
2022-09-02T05:16:29.920Z,5
2022-09-02T05:17:29.651Z,5
2022-09-02T05:18:29.516Z,5
2022-09-02T05:19:32.483Z,5
2022-09-02T05:20:30.075Z,5
2022-09-02T05:21:29.667Z,5
2022-09-02T05:22:29.664Z,5
2022-09-02T05:23:29.853Z,5
2022-09-02T05:24:35.340Z,5
2022-09-02T05:25:29.659Z,5
2022-09-02T05:26:29.680Z,5
2022-09-02T05:27:33.194Z,5
2022-09-02T05:28:29.681Z,5
2022-09-02T05:29:29.688Z,5
2022-09-02T05:30:30.356Z,5
2022-09-02T05:31:30.120Z,5
2022-09-02T05:32:31.589Z,5
2022-09-02T05:33:29.884Z,10
2022-09-02T05:34:29.728Z,10
2022-09-02T05:35:32.849Z,10
2022-09-02T05:36:29.698Z,10
2022-09-02T05:37:29.689Z,10
2022-09-02T05:38:29.693Z,10
2022-09-02T05:39:29.713Z,10
2022-09-02T05:40:35.873Z,10
2022-09-02T05:41:32.732Z,10
2022-09-02T05:42:29.755Z,10
2022-09-02T05:43:29.957Z,10
2022-09-02T05:44:29.722Z,10
2022-09-02T05:45:29.698Z,15
2022-09-02T05:46:33.248Z,15
2022-09-02T05:47:29.765Z,15
2022-09-02T05:48:29.712Z,15
2022-09-02T05:49:29.740Z,15
2022-09-02T05:50:34.294Z,15
2022-09-02T05:51:29.718Z,15
2022-09-02T05:52:29.708Z,15
2022-09-02T05:53:29.750Z,15
2022-09-02T05:54:30.161Z,20
2022-09-02T05:55:29.723Z,25
2022-09-02T05:56:29.722Z,25
2022-09-02T05:57:32.771Z,25
2022-09-02T05:58:29.723Z,30
2022-09-02T05:59:29.741Z,45
2022-09-02T06:00:29.783Z,40
2022-09-02T06:01:30.618Z,25
2022-09-02T06:02:30.743Z,15
2022-09-02T06:03:30.243Z,10
2022-09-02T06:04:29.737Z,10
2022-09-02T06:05:29.788Z,15
2022-09-02T06:06:29.748Z,15
2022-09-02T06:07:29.741Z,15
2022-09-02T06:08:30.427Z,15
2022-09-02T06:09:29.743Z,15
2022-09-02T06:10:29.881Z,15
2022-09-02T06:11:29.768Z,20
2022-09-02T06:12:29.754Z,25
2022-09-02T06:13:32.856Z,45
2022-09-02T06:14:29.755Z,65
2022-09-02T06:15:29.779Z,85
2022-09-02T06:16:30.357Z,85
2022-09-02T06:17:30.655Z,85
2022-09-02T06:18:34.829Z,85
2022-09-02T06:19:29.791Z,85
2022-09-02T06:20:29.870Z,60
2022-09-02T06:21:29.760Z,45
2022-09-02T06:22:29.766Z,30
2022-09-02T06:23:30.523Z,40
2022-09-02T06:24:32.618Z,50
2022-09-02T06:25:29.806Z,50
2022-09-02T06:26:29.783Z,50
2022-09-02T06:27:29.777Z,40
2022-09-02T06:28:29.788Z,45
2022-09-02T06:29:32.540Z,40
2022-09-02T06:30:29.807Z,45
2022-09-02T06:31:36.837Z,50
2022-09-02T06:32:29.794Z,55
2022-09-02T06:33:29.950Z,55
2022-09-02T06:34:29.804Z,55
2022-09-02T06:35:32.687Z,55
2022-09-02T06:36:34.916Z,55
2022-09-02T06:37:30.429Z,55
2022-09-02T06:38:29.785Z,60
2022-09-02T06:39:29.840Z,65
2022-09-02T06:40:33.225Z,70
2022-09-02T06:41:29.800Z,65
2022-09-02T06:42:29.802Z,65
2022-09-02T06:43:30.051Z,60
2022-09-02T06:44:29.810Z,65
2022-09-02T06:45:30.977Z,75
2022-09-02T06:46:33.395Z,75
2022-09-02T06:47:29.811Z,80
2022-09-02T06:48:29.824Z,80
2022-09-02T06:49:29.815Z,80
2022-09-02T06:50:31.427Z,85
2022-09-02T06:51:32.628Z,85
2022-09-02T06:52:29.820Z,85
2022-09-02T06:53:30.111Z,85
2022-09-02T06:54:29.823Z,85
2022-09-02T06:55:29.835Z,85
2022-09-02T06:56:32.962Z,80
2022-09-02T06:57:40.688Z,80
2022-09-02T06:58:29.840Z,80
2022-09-02T06:59:29.861Z,85
2022-09-02T07:00:29.893Z,90
2022-09-02T07:01:30.657Z,105
2022-09-02T07:02:33.662Z,110
2022-09-02T07:03:30.054Z,95
2022-09-02T07:04:29.858Z,105
2022-09-02T07:05:29.856Z,105
2022-09-02T07:06:29.848Z,95
2022-09-02T07:07:32.942Z,110
2022-09-02T07:08:29.844Z,110
2022-09-02T07:09:29.855Z,115
2022-09-02T07:10:29.883Z,120
2022-09-02T07:11:29.929Z,105
2022-09-02T07:12:29.850Z,115
2022-09-02T07:13:32.786Z,120
2022-09-02T07:14:29.879Z,135
2022-09-02T07:15:29.888Z,145
2022-09-02T07:16:36.178Z,150
2022-09-02T07:17:29.904Z,150
2022-09-02T07:18:32.880Z,150
2022-09-02T07:19:30.078Z,150
2022-09-02T07:20:29.981Z,155
2022-09-02T07:21:29.894Z,155
2022-09-02T07:22:29.893Z,155
2022-09-02T07:23:29.965Z,160
2022-09-02T07:24:32.751Z,170
2022-09-02T07:25:29.913Z,160
2022-09-02T07:26:29.899Z,160
2022-09-02T07:27:29.900Z,160
2022-09-02T07:28:29.935Z,165
2022-09-02T07:29:32.911Z,160
2022-09-02T07:30:30.741Z,155
2022-09-02T07:31:30.039Z,160
2022-09-02T07:32:29.749Z,155
2022-09-02T07:33:30.176Z,155
2022-09-02T07:34:29.939Z,145
2022-09-02T07:35:32.741Z,145
2022-09-02T07:36:29.927Z,140
2022-09-02T07:37:31.116Z,135
2022-09-02T07:38:29.926Z,140
2022-09-02T07:39:29.903Z,145
2022-09-02T07:40:31.021Z,150
2022-09-02T07:41:29.926Z,145
2022-09-02T07:42:29.877Z,150
2022-09-02T07:43:30.018Z,160
2022-09-02T07:44:29.934Z,160
2022-09-02T07:45:29.979Z,160
2022-09-02T07:46:33.323Z,155
2022-09-02T07:47:31.182Z,155
2022-09-02T07:48:29.926Z,155
2022-09-02T07:50:20.567Z,145
2022-09-02T07:50:31.152Z,145
2022-09-02T07:51:37.716Z,140
2022-09-02T07:52:30.418Z,140
2022-09-02T07:53:30.576Z,145
2022-09-02T07:54:30.360Z,140
2022-09-02T07:55:30.379Z,135
2022-09-02T07:56:30.387Z,135
2022-09-02T07:57:33.146Z,135
2022-09-02T07:58:34.571Z,135
2022-09-02T07:59:32.789Z,130
2022-09-02T08:00:30.438Z,135
2022-09-02T08:01:33.529Z,130
2022-09-02T08:02:33.700Z,130
2022-09-02T08:03:30.478Z,125
2022-09-02T08:04:30.429Z,125
2022-09-02T08:05:30.464Z,130
2022-09-02T08:06:43.537Z,130
2022-09-02T08:07:30.436Z,125
2022-09-02T08:08:33.264Z,125
2022-09-02T08:09:30.436Z,120
2022-09-02T08:10:30.431Z,120
2022-09-02T08:11:30.440Z,120
2022-09-02T08:12:31.630Z,105
2022-09-02T08:13:34.546Z,110
2022-09-02T08:14:32.766Z,110
2022-09-02T08:15:31.388Z,110
2022-09-02T08:16:31.939Z,110
2022-09-02T08:17:31.241Z,110
2022-09-02T08:18:31.780Z,110
2022-09-02T08:19:30.413Z,105
2022-09-02T08:20:30.513Z,105
2022-09-02T08:21:30.426Z,105
2022-09-02T08:22:30.789Z,105
2022-09-02T08:23:47.334Z,100
2022-09-02T08:24:33.242Z,100
2022-09-02T08:25:30.438Z,100
2022-09-02T08:26:30.559Z,100
2022-09-02T08:27:30.417Z,100
2022-09-02T08:28:30.657Z,95
2022-09-02T08:29:30.431Z,90
2022-09-02T08:30:30.647Z,90
2022-09-02T08:31:30.759Z,85
2022-09-02T08:32:30.453Z,80
2022-09-02T08:33:30.651Z,80
2022-09-02T08:34:30.453Z,80
2022-09-02T08:35:30.491Z,80
2022-09-02T08:36:30.448Z,80
2022-09-02T08:37:30.430Z,80
2022-09-02T08:38:30.771Z,80
2022-09-02T08:39:30.711Z,75
2022-09-02T08:40:34.384Z,80
2022-09-02T08:41:30.414Z,80
2022-09-02T08:42:30.477Z,75
2022-09-02T08:43:30.593Z,75
2022-09-02T08:44:31.547Z,75
2022-09-02T08:45:30.857Z,75
2022-09-02T08:46:31.602Z,75
2022-09-02T08:47:30.480Z,80
2022-09-02T08:48:31.810Z,80
2022-09-02T08:49:30.505Z,80
2022-09-02T08:50:30.458Z,80
2022-09-02T08:51:40.084Z,80
2022-09-02T08:52:30.495Z,80
2022-09-02T08:53:30.619Z,80
2022-09-02T08:54:30.565Z,85
2022-09-02T08:55:30.480Z,80
2022-09-02T08:56:33.697Z,80
2022-09-02T08:57:30.492Z,80
2022-09-02T08:58:30.787Z,85
2022-09-02T08:59:30.755Z,85
2022-09-02T09:00:30.506Z,85
2022-09-02T09:01:30.888Z,85
2022-09-02T09:02:36.071Z,85
2022-09-02T09:03:30.786Z,85
2022-09-02T09:04:30.502Z,80
2022-09-02T09:05:30.509Z,85
2022-09-02T09:06:30.551Z,85
2022-09-02T09:07:33.829Z,75
2022-09-02T09:08:31.266Z,80
2022-09-02T09:09:30.513Z,80
2022-09-02T09:10:30.517Z,80
2022-09-02T09:11:30.527Z,75
2022-09-02T09:12:30.535Z,80
2022-09-02T09:13:33.285Z,80
2022-09-02T09:14:30.527Z,80
2022-09-02T09:15:33.520Z,80
2022-09-02T09:16:34.393Z,75
2022-09-02T09:17:30.521Z,75
2022-09-02T09:18:33.763Z,75
2022-09-02T09:19:30.534Z,75
2022-09-02T09:20:30.373Z,75
2022-09-02T09:21:30.603Z,75
2022-09-02T09:22:30.548Z,75
2022-09-02T09:23:38.964Z,80
2022-09-02T09:24:33.379Z,75
2022-09-02T09:25:30.547Z,75
2022-09-02T09:26:31.572Z,75
2022-09-02T09:27:30.628Z,75
2022-09-02T09:28:31.170Z,75
2022-09-02T09:29:33.761Z,75
2022-09-02T09:30:32.102Z,75
2022-09-02T09:31:30.949Z,75
2022-09-02T09:32:30.558Z,75
2022-09-02T09:33:30.797Z,70
2022-09-02T09:34:33.599Z,70
2022-09-02T09:35:30.573Z,70
2022-09-02T09:36:30.648Z,75
2022-09-02T09:37:36.240Z,70
2022-09-02T09:38:30.571Z,75
2022-09-02T09:40:33.847Z,75
2022-09-02T09:41:30.583Z,75
2022-09-02T09:42:30.571Z,75
2022-09-02T09:43:30.836Z,75
2022-09-02T09:44:30.599Z,75
2022-09-02T09:45:33.813Z,75
2022-09-02T09:46:34.640Z,75
2022-09-02T09:47:30.574Z,75
2022-09-02T09:48:30.599Z,75
2022-09-02T09:49:30.592Z,75
2022-09-02T09:50:34.009Z,75
2022-09-02T09:51:52.549Z,75
2022-09-02T09:52:30.601Z,75
2022-09-02T09:53:30.917Z,75
2022-09-02T09:54:30.602Z,75
2022-09-02T09:55:39.383Z,75
2022-09-02T09:56:37.359Z,75
2022-09-02T09:57:44.723Z,75
2022-09-02T09:58:30.719Z,80
2022-09-02T09:59:30.608Z,80
2022-09-02T10:00:30.603Z,25
2022-09-02T10:01:31.276Z,30
2022-09-02T10:02:38.708Z,75
2022-09-02T10:03:35.278Z,25
2022-09-02T10:04:51.638Z,75
2022-09-02T10:05:30.611Z,25
2022-09-02T10:06:33.657Z,70
2022-09-02T10:07:41.819Z,85
2022-09-02T10:08:30.617Z,85
2022-09-02T10:09:33.734Z,85
2022-09-02T10:10:30.632Z,80
2022-09-02T10:11:30.640Z,80
2022-09-02T10:12:30.659Z,80
2022-09-02T10:13:33.550Z,85
2022-09-02T10:14:34.565Z,80
2022-09-02T10:15:30.640Z,30
2022-09-02T10:16:34.348Z,25
2022-09-02T10:17:30.646Z,25
2022-09-02T10:18:33.500Z,45
2022-09-02T10:19:30.637Z,80
2022-09-02T10:20:30.664Z,80
2022-09-02T10:21:30.667Z,80
2022-09-02T10:23:03.761Z,80
2022-09-02T10:23:30.659Z,80
2022-09-02T10:24:33.802Z,80
2022-09-02T10:25:30.650Z,80
2022-09-02T10:26:30.756Z,80
2022-09-02T10:27:30.653Z,80
2022-09-02T10:28:30.897Z,85
2022-09-02T10:29:33.439Z,80
2022-09-02T10:30:30.667Z,80
2022-09-02T10:31:31.038Z,80
2022-09-02T10:32:30.505Z,80
2022-09-02T10:33:32.028Z,20
2022-09-02T10:34:30.664Z,25
2022-09-02T10:35:33.671Z,25
2022-09-02T10:36:34.389Z,80
2022-09-02T10:37:30.697Z,80
2022-09-02T10:38:30.797Z,80
2022-09-02T10:39:30.687Z,80
2022-09-02T10:40:33.953Z,85
2022-09-02T10:41:30.792Z,80
2022-09-02T10:42:30.702Z,85
2022-09-02T10:43:30.851Z,80
2022-09-02T10:44:30.687Z,80
2022-09-02T10:45:30.703Z,75
2022-09-02T10:46:31.038Z,75
2022-09-02T10:47:38.891Z,75
2022-09-02T10:48:31.132Z,75
2022-09-02T10:49:30.707Z,75
2022-09-02T10:50:30.736Z,75
2022-09-02T10:51:33.722Z,80
2022-09-02T10:52:30.722Z,75
2022-09-02T10:53:30.985Z,75
2022-09-02T10:54:32.695Z,75
2022-09-02T10:55:30.704Z,80
2022-09-02T10:56:30.699Z,85
2022-09-02T10:57:31.025Z,85
2022-09-02T10:58:30.718Z,85
2022-09-02T10:59:30.710Z,35
2022-09-02T11:00:30.925Z,85
2022-09-02T11:01:30.982Z,60
2022-09-02T11:02:30.607Z,45
2022-09-02T11:03:31.363Z,55
2022-09-02T11:04:36.634Z,85
2022-09-02T11:05:30.755Z,80
2022-09-02T11:07:14.851Z,75
2022-09-02T11:07:33.766Z,75
2022-09-02T11:08:36.242Z,75
2022-09-02T11:09:30.814Z,75
2022-09-02T11:10:30.742Z,75
2022-09-02T11:11:30.752Z,75
2022-09-02T11:12:30.760Z,75
2022-09-02T11:13:30.899Z,75
2022-09-02T11:14:37.500Z,25
2022-09-02T11:15:30.821Z,25
2022-09-02T11:16:31.495Z,75
2022-09-02T11:17:30.773Z,75
2022-09-02T11:18:37.878Z,70
2022-09-02T11:19:34.308Z,75
2022-09-02T11:20:32.522Z,40
2022-09-02T11:21:36.330Z,75
2022-09-02T11:22:34.993Z,75
2022-09-02T11:23:33.608Z,80
2022-09-02T11:24:31.514Z,80
2022-09-02T11:25:31.271Z,55
2022-09-02T11:26:31.563Z,75
2022-09-02T11:27:49.807Z,75
2022-09-02T11:28:30.829Z,80
2022-09-02T11:29:33.865Z,45
2022-09-02T11:30:30.783Z,60
2022-09-02T11:31:31.630Z,20
2022-09-02T11:32:32.927Z,25
2022-09-02T11:33:31.029Z,25
2022-09-02T11:34:33.820Z,25
2022-09-02T11:35:32.361Z,75
2022-09-02T11:36:38.333Z,25
2022-09-02T11:37:30.827Z,35
2022-09-02T11:38:34.103Z,75
2022-09-02T11:40:36.820Z,75
2022-09-02T11:41:37.957Z,75
2022-09-02T11:41:51.886Z,75
2022-09-02T11:42:48.230Z,75
2022-09-02T11:43:48.425Z,75
2022-09-02T11:44:58.905Z,75
2022-09-02T11:45:52.732Z,30
2022-09-02T11:46:48.838Z,35
2022-09-02T11:47:57.954Z,25
2022-09-02T11:48:49.394Z,30
2022-09-02T11:49:48.492Z,70
2022-09-02T11:50:49.117Z,45
2022-09-02T11:51:49.106Z,25
2022-09-02T11:52:51.368Z,70
2022-09-02T11:53:49.554Z,75
2022-09-02T11:54:49.420Z,75
2022-09-02T11:55:48.212Z,75
2022-09-02T11:56:48.202Z,80
2022-09-02T11:57:52.431Z,45
2022-09-02T11:58:50.977Z,45
2022-09-02T11:59:49.765Z,25
2022-09-02T12:00:49.067Z,60
2022-09-02T12:01:53.443Z,20
2022-09-02T12:02:48.255Z,40
2022-09-02T12:05:08.029Z,70
2022-09-02T12:06:22.310Z,70
2022-09-02T12:07:19.772Z,70
2022-09-02T12:08:18.398Z,20
2022-09-02T12:09:17.592Z,25
2022-09-02T12:10:20.533Z,50
2022-09-02T12:11:19.042Z,25
2022-09-02T12:12:17.590Z,55
2022-09-02T12:13:19.346Z,70
2022-09-02T12:14:18.017Z,75
2022-09-02T12:15:17.875Z,65
2022-09-02T12:16:18.331Z,70
2022-09-02T12:17:21.737Z,35
2022-09-02T12:18:18.356Z,70
2022-09-02T12:19:20.802Z,70
2022-09-02T12:20:17.662Z,70
2022-09-02T12:21:30.894Z,70
2022-09-02T12:22:21.126Z,70
2022-09-02T12:23:18.473Z,70
2022-09-02T12:24:17.763Z,70
2022-09-02T12:25:18.186Z,65
2022-09-02T12:26:23.647Z,70
2022-09-02T12:27:18.196Z,70
2022-09-02T12:28:30.478Z,60
2022-09-02T12:29:19.166Z,65
2022-09-02T12:30:18.843Z,70
2022-09-02T12:31:22.486Z,70
2022-09-02T12:32:17.831Z,70
2022-09-02T12:33:20.810Z,70
2022-09-02T12:34:20.512Z,70
2022-09-02T12:35:17.831Z,25
2022-09-02T12:36:17.640Z,40
2022-09-02T12:37:18.397Z,45
2022-09-02T12:38:18.133Z,25
2022-09-02T12:39:24.600Z,25
2022-09-02T12:40:22.462Z,25
2022-09-02T12:41:22.179Z,60
2022-09-02T12:42:18.343Z,70
2022-09-02T12:43:17.696Z,25
2022-09-02T12:44:21.354Z,25
2022-09-02T12:45:19.294Z,25
2022-09-02T12:46:18.004Z,25
2022-09-02T12:47:17.713Z,70
2022-09-02T12:48:17.988Z,20
2022-09-02T12:49:18.337Z,55
2022-09-02T12:50:23.446Z,40
2022-09-02T12:51:17.830Z,55
2022-09-02T12:52:17.679Z,70
2022-09-02T12:53:23.147Z,65
2022-09-02T12:54:17.688Z,60
2022-09-02T12:55:20.485Z,65
2022-09-02T12:56:19.534Z,65
2022-09-02T12:57:17.678Z,65
2022-09-02T12:58:17.687Z,65
2022-09-02T12:59:17.700Z,65
2022-09-02T13:00:17.671Z,65
2022-09-02T13:01:21.147Z,65
2022-09-02T13:02:17.714Z,65
2022-09-02T13:03:17.730Z,65
2022-09-02T13:04:17.731Z,65
2022-09-02T13:05:17.743Z,25
2022-09-02T13:06:20.545Z,25
2022-09-02T13:07:17.685Z,25
2022-09-02T13:08:17.703Z,25
2022-09-02T13:09:18.045Z,30
2022-09-02T13:10:17.733Z,55
2022-09-02T13:11:20.760Z,30
2022-09-02T13:12:20.738Z,30
2022-09-02T13:13:17.864Z,25
2022-09-02T13:14:17.712Z,35
2022-09-02T13:15:21.349Z,25
2022-09-02T13:16:28.156Z,25
2022-09-02T13:17:44.295Z,25
2022-09-02T13:18:17.713Z,30
2022-09-02T13:19:17.812Z,25
2022-09-02T13:20:18.201Z,20
2022-09-02T13:21:19.130Z,30
2022-09-02T13:22:20.679Z,55
2022-09-02T13:23:23.849Z,65
2022-09-02T13:24:19.189Z,20
2022-09-02T13:25:20.395Z,15
2022-09-02T13:26:51.551Z,15
2022-09-02T13:27:22.703Z,15
2022-09-02T13:28:23.867Z,20
2022-09-02T13:29:17.753Z,15
2022-09-02T13:30:17.799Z,60
2022-09-02T13:31:18.010Z,60
2022-09-02T13:32:17.769Z,25
2022-09-02T13:33:21.070Z,15
2022-09-02T13:34:17.759Z,35
2022-09-02T13:35:23.895Z,55
2022-09-02T13:36:17.740Z,55
2022-09-02T13:37:19.827Z,40
2022-09-02T13:38:22.736Z,60
2022-09-02T13:39:20.751Z,60
2022-09-02T13:40:17.754Z,55
2022-09-02T13:41:18.536Z,55
2022-09-02T13:42:25.735Z,55
2022-09-02T13:43:17.761Z,55
2022-09-02T13:44:21.332Z,55
2022-09-02T13:45:18.585Z,55
2022-09-02T13:46:17.888Z,55
2022-09-02T13:47:17.770Z,55
2022-09-02T13:48:18.742Z,55
2022-09-02T13:49:17.788Z,55
2022-09-02T13:50:17.784Z,55
2022-09-02T13:51:17.786Z,55
2022-09-02T13:54:30.760Z,55
2022-09-02T13:55:48.182Z,55
2022-09-02T13:56:42.719Z,55
2022-09-02T13:57:45.805Z,55
2022-09-02T13:58:48.208Z,55
2022-09-02T13:59:42.738Z,55
2022-09-02T14:00:43.590Z,55
2022-09-02T14:01:43.926Z,55
2022-09-02T14:02:50.396Z,55
2022-09-02T14:03:43.683Z,55
2022-09-02T14:04:43.177Z,55
2022-09-02T14:05:49.545Z,55
2022-09-02T14:06:42.808Z,55
2022-09-02T14:07:42.733Z,55
2022-09-02T14:08:45.820Z,55
2022-09-02T14:09:42.752Z,55
2022-09-02T14:10:42.758Z,50
2022-09-02T14:11:42.756Z,55
2022-09-02T14:12:42.728Z,45
2022-09-02T14:13:47.625Z,55
2022-09-02T14:14:42.797Z,55
2022-09-02T14:15:43.101Z,55
2022-09-02T14:16:42.779Z,55
2022-09-02T14:17:42.765Z,55
2022-09-02T14:18:42.743Z,55
2022-09-02T14:19:45.814Z,55
2022-09-02T14:20:42.804Z,55
2022-09-02T14:21:44.454Z,55
2022-09-02T14:22:42.773Z,50
2022-09-02T14:23:42.757Z,50
2022-09-02T14:24:45.673Z,50
2022-09-02T14:25:42.772Z,50
2022-09-02T14:26:42.796Z,50
2022-09-02T14:27:42.765Z,50
2022-09-02T14:28:42.815Z,50
2022-09-02T14:29:42.783Z,50
2022-09-02T14:30:46.042Z,50
2022-09-02T14:31:42.894Z,50
2022-09-02T14:32:42.857Z,50